createdAt,value
2017-12-28T00:00:40.574Z,93098
2017-12-28T00:03:15.577Z,93108
2017-12-28T00:05:50.419Z,93098
2017-12-28T00:08:19.089Z,93104
2017-12-28T00:10:54.033Z,93098
2017-12-28T00:13:28.946Z,93106
2017-12-28T00:19:06.010Z,93098
2017-12-28T00:21:43.329Z,93108
2017-12-28T00:24:13.798Z,93103
2017-12-28T00:26:42.514Z,93111
2017-12-28T00:32:23.802Z,93121
2017-12-28T00:34:53.648Z,93117
2017-12-28T00:37:24.199Z,93110
2017-12-28T00:39:53.102Z,93112
2017-12-28T00:42:31.228Z,93122
2017-12-28T00:45:02.953Z,93119
2017-12-28T00:47:32.796Z,93122
2017-12-28T00:50:01.698Z,93124
2017-12-28T00:52:31.691Z,93133
2017-12-28T00:55:23.576Z,93132
2017-12-28T00:57:52.303Z,93128
2017-12-28T01:00:21.913Z,93118
2017-12-28T01:07:09.497Z,93121
2017-12-28T01:09:38.185Z,93120
2017-12-28T01:12:13.187Z,93124
2017-12-28T01:14:41.862Z,93113
2017-12-28T01:17:10.558Z,93126
2017-12-28T01:19:52.146Z,93142
2017-12-28T01:22:33.494Z,93151
2017-12-28T01:25:10.950Z,93138
2017-12-28T01:27:39.635Z,93132
2017-12-28T01:30:08.329Z,93137
2017-12-28T01:32:42.407Z,93146
2017-12-28T01:35:17.186Z,93152
2017-12-28T01:37:46.178Z,93147
2017-12-28T01:40:14.890Z,93155
2017-12-28T01:43:05.108Z,93155
2017-12-28T01:45:33.781Z,93156
2017-12-28T01:48:02.480Z,93155
2017-12-28T01:50:31.166Z,93167
2017-12-28T01:53:22.520Z,93172
2017-12-28T01:55:51.972Z,93163
2017-12-28T01:58:24.651Z,93168
2017-12-28T02:03:58.693Z,93181
2017-12-28T02:06:27.374Z,93178
2017-12-28T02:08:56.051Z,93191
2017-12-28T02:11:24.735Z,93186
2017-12-28T02:13:53.419Z,93189
2017-12-28T02:16:23.856Z,93179
2017-12-28T02:18:52.532Z,93186
2017-12-28T02:24:25.733Z,93197
2017-12-28T02:26:55.248Z,93189
2017-12-28T02:29:23.933Z,93188
2017-12-28T02:31:52.616Z,93194
2017-12-28T02:34:22.163Z,93193
2017-12-28T02:36:50.842Z,93195
2017-12-28T02:39:25.839Z,93100
2017-12-28T02:41:55.370Z,93200
2017-12-28T02:47:29.070Z,93193
2017-12-28T02:50:06.791Z,93190
2017-12-28T02:52:43.394Z,93189
2017-12-28T02:58:38.578Z,93202
2017-12-28T03:04:16.197Z,93193
2017-12-28T03:06:51.015Z,93203
2017-12-28T03:09:26.065Z,93207
2017-12-28T03:12:01.814Z,93207
2017-12-28T03:14:30.498Z,93213
2017-12-28T03:17:00.074Z,93211
2017-12-28T03:19:52.226Z,93212
2017-12-28T03:22:21.106Z,93216
2017-12-28T03:24:59.506Z,93215
2017-12-28T03:27:29.042Z,93222
2017-12-28T03:29:57.742Z,93226
2017-12-28T03:32:31.553Z,93229
2017-12-28T03:35:00.364Z,93226
2017-12-28T03:37:29.806Z,93229
2017-12-28T03:39:58.488Z,93241
2017-12-28T03:42:27.167Z,93237
2017-12-28T03:44:55.845Z,93235
2017-12-28T03:47:24.540Z,93244
2017-12-28T03:49:53.221Z,93248
2017-12-28T03:52:21.923Z,93252
2017-12-28T03:55:20.201Z,93249
2017-12-28T03:57:48.915Z,93253
2017-12-28T04:00:17.590Z,93253
2017-12-28T04:02:46.278Z,93258
2017-12-28T04:05:14.962Z,93260
2017-12-28T04:07:45.334Z,93270
2017-12-28T04:10:14.878Z,93276
2017-12-28T04:12:47.058Z,93277
2017-12-28T04:15:15.742Z,93276
2017-12-28T04:17:46.058Z,93277
2017-12-28T04:20:15.743Z,93284
2017-12-28T04:22:44.422Z,93277
2017-12-28T04:25:13.099Z,93278
2017-12-28T04:27:42.542Z,93282
2017-12-28T04:30:11.234Z,93283
2017-12-28T04:32:39.923Z,93294
2017-12-28T04:35:14.027Z,93283
2017-12-28T04:40:48.809Z,93294
2017-12-28T04:46:22.500Z,93309
2017-12-28T04:48:51.987Z,93310
2017-12-28T04:51:21.518Z,93310
2017-12-28T04:56:33.797Z,93306
2017-12-28T05:02:25.263Z,93301
2017-12-28T05:04:54.890Z,93308
2017-12-28T05:07:24.065Z,93309
2017-12-28T05:14:32.432Z,93313
2017-12-28T05:17:01.121Z,93318
2017-12-28T05:22:35.119Z,93328
2017-12-28T05:25:21.797Z,93327
2017-12-28T05:27:50.496Z,93343
2017-12-28T05:30:19.170Z,93342
2017-12-28T05:32:56.290Z,93343
2017-12-28T05:35:25.030Z,93348
2017-12-28T05:37:53.722Z,93348
2017-12-28T05:40:22.411Z,93344
2017-12-28T05:42:51.086Z,93355
2017-12-28T05:45:20.622Z,93345
2017-12-28T05:47:50.250Z,93346
2017-12-28T05:50:19.394Z,93349
2017-12-28T05:52:50.067Z,93348
2017-12-28T05:55:18.781Z,93357
2017-12-28T05:57:47.477Z,93366
2017-12-28T06:00:16.154Z,93373
2017-12-28T06:02:44.837Z,93382
2017-12-28T06:05:20.553Z,93378
2017-12-28T06:07:52.019Z,93378
2017-12-28T06:10:20.695Z,93384
2017-12-28T06:12:55.489Z,93382
2017-12-28T06:18:25.577Z,93384
2017-12-28T06:20:54.254Z,93394
2017-12-28T06:23:22.970Z,93398
2017-12-28T06:25:51.647Z,93404
2017-12-28T06:28:20.325Z,93408
2017-12-28T06:31:14.066Z,93419
2017-12-28T06:33:59.642Z,93412
2017-12-28T06:36:29.194Z,93412
2017-12-28T06:38:57.869Z,93422
2017-12-28T06:41:26.563Z,93426
2017-12-28T06:43:57.170Z,93422
2017-12-28T06:46:25.857Z,93423
2017-12-28T06:49:00.795Z,93430
2017-12-28T06:51:29.511Z,93431
2017-12-28T06:54:04.403Z,93434
2017-12-28T06:56:39.318Z,93447
2017-12-28T06:59:08.004Z,93443
2017-12-28T07:01:37.516Z,93448
2017-12-28T07:04:06.210Z,93456
2017-12-28T07:09:55.803Z,93472
2017-12-28T17:54:04.502Z,94501
2017-12-28T17:56:33.227Z,94502
2017-12-28T17:59:08.155Z,94491
2017-12-28T18:01:37.675Z,94492
2017-12-28T18:04:12.811Z,94501
2017-12-28T18:06:42.299Z,94502
2017-12-28T18:09:10.991Z,94497
2017-12-28T18:11:40.447Z,94500
2017-12-28T18:14:15.405Z,94513
2017-12-28T18:16:49.987Z,94518
2017-12-28T18:19:23.710Z,94509
2017-12-28T18:21:52.395Z,94520
2017-12-28T18:24:25.416Z,94534
2017-12-28T18:26:54.086Z,94540
2017-12-28T18:29:22.820Z,94538
2017-12-28T18:31:58.534Z,94539
2017-12-28T18:34:28.146Z,94532
2017-12-28T18:36:56.863Z,94552
2017-12-28T18:39:27.079Z,94559
2017-12-28T18:41:57.639Z,94564
2017-12-28T18:44:27.325Z,94560
2017-12-28T18:50:08.022Z,94585
2017-12-28T18:52:43.016Z,94592
2017-12-28T18:55:11.980Z,94581
2017-12-28T18:57:40.678Z,94592
2017-12-28T19:00:09.382Z,94603
2017-12-28T19:02:38.834Z,94616
2017-12-28T19:05:08.406Z,94606
2017-12-28T19:07:37.194Z,94627
2017-12-28T19:10:06.664Z,94628
2017-12-28T19:12:35.365Z,94629
2017-12-28T19:15:05.159Z,94634
2017-12-28T19:17:33.835Z,94630
2017-12-28T19:20:02.514Z,94650
2017-12-28T19:22:31.194Z,94652
2017-12-28T19:25:05.986Z,94642
2017-12-28T19:27:34.686Z,94645
2017-12-28T19:30:09.661Z,94659
2017-12-28T19:32:38.355Z,94657
2017-12-28T19:35:07.310Z,94661
2017-12-28T19:37:37.255Z,94674
2017-12-28T19:40:07.549Z,94680
2017-12-28T19:42:42.059Z,94668
2017-12-28T19:45:18.386Z,94670
2017-12-28T19:47:53.410Z,94673
2017-12-28T19:50:28.322Z,94677
2017-12-28T19:52:58.750Z,94682
2017-12-28T19:55:33.676Z,94696
2017-12-28T19:58:08.653Z,94694
2017-12-28T20:00:45.516Z,94714
2017-12-28T20:03:14.304Z,94710
2017-12-28T20:05:49.321Z,94703
2017-12-28T20:08:26.794Z,94705
2017-12-28T20:11:01.667Z,94698
2017-12-28T20:16:11.519Z,94714
2017-12-28T20:18:40.213Z,94721
2017-12-28T20:21:08.897Z,94731
2017-12-28T20:23:37.612Z,94728
2017-12-28T20:26:08.083Z,94734
2017-12-28T20:28:37.302Z,94730
2017-12-28T20:31:07.853Z,94737
2017-12-28T20:33:37.508Z,94744
2017-12-28T20:36:07.920Z,94741
2017-12-28T20:38:43.758Z,94739
2017-12-28T20:41:12.435Z,94756
2017-12-28T20:43:48.391Z,94751
2017-12-28T20:46:17.930Z,94755
2017-12-28T20:48:46.627Z,94752
2017-12-28T20:51:15.326Z,94760
2017-12-28T20:53:44.947Z,94756
2017-12-28T20:56:19.812Z,94753
2017-12-28T20:58:49.875Z,94770
2017-12-28T21:01:18.707Z,94782
2017-12-28T21:03:47.372Z,94765
2017-12-28T21:06:16.850Z,94759
2017-12-28T21:08:53.446Z,94767
2017-12-28T21:11:31.963Z,94775
2017-12-28T21:14:06.913Z,94774
2017-12-28T21:16:42.273Z,94778
2017-12-28T21:19:20.115Z,94775
2017-12-28T21:21:48.809Z,94784
2017-12-28T21:24:23.724Z,94784
2017-12-28T21:26:54.391Z,94791
2017-12-28T21:29:23.842Z,94794
2017-12-28T21:31:52.854Z,94792
2017-12-28T21:34:29.095Z,94800
2017-12-28T21:37:11.674Z,94806
2017-12-28T21:39:42.435Z,94802
2017-12-28T21:42:17.377Z,94813
2017-12-28T21:44:46.146Z,94826
2017-12-28T21:47:16.016Z,94821
2017-12-28T21:49:44.718Z,94828
2017-12-28T21:52:14.409Z,94823
2017-12-28T21:54:46.126Z,94825
2017-12-28T21:57:21.747Z,94831
2017-12-28T21:59:50.535Z,94825
2017-12-28T22:02:19.283Z,94839
2017-12-28T22:04:55.416Z,94845
2017-12-28T22:07:25.515Z,94845
2017-12-28T22:09:59.958Z,94850
2017-12-28T22:12:28.792Z,94857
2017-12-28T22:15:06.907Z,94858
2017-12-28T22:17:36.134Z,94868
2017-12-28T22:20:05.831Z,94882
2017-12-28T22:22:34.514Z,94880
2017-12-28T22:25:03.462Z,94882
2017-12-28T22:27:38.335Z,94884
2017-12-28T22:30:07.017Z,94896
2017-12-28T22:32:49.662Z,94893
2017-12-28T22:35:18.345Z,94891
2017-12-28T22:37:53.269Z,94894
2017-12-28T22:40:21.945Z,94900
2017-12-28T22:42:57.243Z,94887
2017-12-28T22:45:25.928Z,94901
2017-12-28T22:47:54.603Z,94908
2017-12-28T22:50:30.425Z,94894
2017-12-28T22:52:59.190Z,94918
2017-12-28T22:55:28.651Z,94915
2017-12-28T22:58:03.430Z,94916
2017-12-28T23:00:42.234Z,94919
2017-12-28T23:03:11.755Z,94915
2017-12-28T23:05:41.193Z,94914
2017-12-28T23:08:10.797Z,94919
2017-12-28T23:10:39.762Z,94924
2017-12-28T23:13:15.437Z,94914
2017-12-28T23:15:49.534Z,94925
2017-12-28T23:18:18.286Z,94929
2017-12-28T23:20:51.016Z,94934
2017-12-28T23:23:19.729Z,94925
2017-12-28T23:25:48.414Z,94919
2017-12-28T23:28:45.842Z,94923
2017-12-28T23:31:16.507Z,94932
2017-12-28T23:33:51.559Z,94934
2017-12-28T23:36:22.165Z,94940
2017-12-28T23:38:57.084Z,94945
2017-12-28T23:41:26.717Z,94935
2017-12-28T23:43:55.455Z,94940
2017-12-28T23:46:24.248Z,94941
2017-12-28T23:48:52.945Z,94947
2017-12-28T23:51:22.452Z,94946
2017-12-28T23:53:51.144Z,94955
2017-12-28T23:56:21.747Z,94954
2017-12-28T23:58:50.452Z,94950
